Time;durP1;ratioP1;P1;durP2;ratioP2;P2;SDS_P1;SDS_P2;PMS_P1;PMS_P2;Temp;Humidity;BMP_temperature;BMP_pressure;BME280_temperature;BME280_humidity;BME280_pressure;Samples;Min_cycle;Max_cycle;Signal;HPM_P1;HPM_P2
2022/10/09 00:01:52;;;;;;;0.60;0.60;;;;;8.90;96756.00;;;;5117216;28;20196;-56
2022/10/09 00:04:19;;;;;;;0.63;0.63;;;;;8.70;96758.00;;;;5117169;28;20186;-55
2022/10/09 00:06:45;;;;;;;0.70;0.70;;;;;8.70;96747.00;;;;5117061;28;20225;-55
2022/10/09 00:09:13;;;;;;;0.50;0.50;;;;;8.70;96763.00;;;;5099104;28;20194;-54
2022/10/09 00:11:39;;;;;;;0.60;0.60;;;;;8.70;96747.00;;;;5116927;28;20654;-53
2022/10/09 00:14:06;;;;;;;0.70;0.70;;;;;8.60;96756.00;;;;5116908;28;20209;-54
2022/10/09 00:16:34;;;;;;;0.60;0.60;;;;;8.50;96751.00;;;;5099135;28;20194;-54
2022/10/09 00:19:03;;;;;;;0.70;0.70;;;;;8.50;96744.00;;;;5116792;28;20214;-54
2022/10/09 00:21:31;;;;;;;0.50;0.50;;;;;8.50;96748.00;;;;5116734;28;20251;-55
2022/10/09 00:24:00;;;;;;;0.80;0.80;;;;;8.60;96740.00;;;;5116763;28;20233;-54
2022/10/09 00:26:27;;;;;;;0.70;0.70;;;;;8.60;96741.00;;;;5116743;28;20198;-55
2022/10/09 00:28:55;;;;;;;0.80;0.80;;;;;8.60;96742.00;;;;5098749;28;20253;-53
2022/10/09 00:31:22;;;;;;;0.60;0.60;;;;;8.60;96736.00;;;;5116727;28;20572;-55
2022/10/09 00:33:49;;;;;;;1.00;1.00;;;;;8.50;96740.00;;;;5116637;28;20243;-54
2022/10/09 00:36:19;;;;;;;0.70;0.70;;;;;8.40;96734.00;;;;5116602;28;20594;-54
2022/10/09 00:38:49;;;;;;;0.70;0.70;;;;;8.50;96733.00;;;;5116575;28;20633;-55
2022/10/09 00:41:19;;;;;;;0.73;0.73;;;;;8.60;96741.00;;;;5098774;28;20222;-54
2022/10/09 00:43:50;;;;;;;0.60;0.60;;;;;8.50;96732.00;;;;5116492;28;20194;-54
2022/10/09 00:46:32;;;;;;;0.50;0.50;;;;;8.50;96724.00;;;;5116368;28;20225;-54
2022/10/09 00:49:05;;;;;;;1.13;1.13;;;;;8.30;96723.00;;;;5116498;28;20201;-54
2022/10/09 00:51:33;;;;;;;0.80;0.80;;;;;8.10;96726.00;;;;5116395;28;20230;-55
2022/10/09 00:54:01;;;;;;;0.80;0.80;;;;;8.10;96726.00;;;;5116542;28;20212;-54
2022/10/09 00:56:28;;;;;;;0.60;0.60;;;;;8.10;96724.00;;;;5116239;28;20210;-54
2022/10/09 00:58:56;;;;;;;1.13;1.13;;;;;8.20;96718.00;;;;5116235;28;20186;-54
2022/10/09 01:01:23;;;;;;;0.93;0.93;;;;;8.10;96720.00;;;;5115955;28;20234;-54
2022/10/09 01:03:50;;;;;;;2.87;0.80;;;;;8.00;96725.00;;;;5116198;28;20213;-54
2022/10/09 01:06:24;;;;;;;1.60;1.50;;;;;8.00;96715.00;;;;5115757;28;20190;-55
2022/10/09 01:08:58;;;;;;;1.23;1.20;;;;;8.10;96723.00;;;;5116096;28;20209;-53
2022/10/09 01:11:36;;;;;;;0.70;0.70;;;;;8.10;96718.00;;;;5116064;28;20266;-53
2022/10/09 01:14:09;;;;;;;0.90;0.90;;;;;8.10;96724.00;;;;5116109;28;20304;-54
2022/10/09 01:16:40;;;;;;;0.70;0.70;;;;;8.10;96705.00;;;;5115960;28;20190;-54
2022/10/09 01:19:19;;;;;;;1.13;1.07;;;;;8.10;96707.00;;;;5115866;28;20221;-54
2022/10/09 01:21:57;;;;;;;0.80;0.80;;;;;8.10;96714.00;;;;5115853;28;20282;-54
2022/10/09 01:24:32;;;;;;;0.73;0.73;;;;;8.20;96701.00;;;;5115777;28;20233;-54
2022/10/09 01:27:05;;;;;;;0.73;0.73;;;;;8.20;96712.00;;;;5115901;28;20222;-55
2022/10/09 01:29:36;;;;;;;1.07;1.07;;;;;8.20;96703.00;;;;5115756;28;20209;-55
2022/10/09 01:32:04;;;;;;;0.60;0.60;;;;;8.20;96702.00;;;;5115770;28;20213;-54
2022/10/09 01:34:32;;;;;;;0.80;0.80;;;;;8.30;96696.00;;;;5115725;28;20241;-55
2022/10/09 01:36:59;;;;;;;0.60;0.60;;;;;8.30;96702.00;;;;5115631;28;20225;-54
2022/10/09 01:39:28;;;;;;;1.00;1.00;;;;;8.30;96695.00;;;;5097762;28;20501;-56
2022/10/09 01:41:56;;;;;;;1.83;0.97;;;;;8.20;96702.00;;;;5115605;28;20222;-55
2022/10/09 01:44:27;;;;;;;2.50;2.30;;;;;8.10;96699.00;;;;5115511;28;20194;-53
2022/10/09 01:46:54;;;;;;;4.83;1.47;;;;;8.20;96694.00;;;;5115383;28;20218;-54
2022/10/09 01:49:32;;;;;;;0.93;0.93;;;;;8.20;96694.00;;;;5115485;28;20198;-53
2022/10/09 01:52:09;;;;;;;2.00;1.50;;;;;8.20;96683.00;;;;5115328;28;20625;-54
2022/10/09 01:54:43;;;;;;;1.10;1.10;;;;;8.20;96685.00;;;;5115406;28;20193;-54
2022/10/09 01:57:13;;;;;;;0.80;0.80;;;;;8.10;96688.00;;;;5115388;28;20569;-54
2022/10/09 01:59:44;;;;;;;1.07;1.07;;;;;8.00;96673.00;;;;5115207;28;20186;-54
2022/10/09 02:02:11;;;;;;;1.27;1.17;;;;;8.00;96676.00;;;;5115208;28;20191;-54
2022/10/09 02:04:41;;;;;;;0.80;0.80;;;;;8.00;96667.00;;;;5115104;28;20296;-54
2022/10/09 02:07:08;;;;;;;1.07;1.07;;;;;8.00;96672.00;;;;5115315;28;20190;-55
2022/10/09 02:09:36;;;;;;;0.97;0.97;;;;;7.80;96666.00;;;;5115015;28;20553;-55
2022/10/09 02:12:09;;;;;;;0.77;0.77;;;;;7.60;96661.00;;;;5115105;28;20247;-54
2022/10/09 02:14:36;;;;;;;0.90;0.90;;;;;7.40;96656.00;;;;5097114;28;20234;-54
2022/10/09 02:17:09;;;;;;;0.60;0.60;;;;;7.40;96658.00;;;;5114205;28;20232;-54
2022/10/09 02:19:40;;;;;;;0.87;0.87;;;;;7.40;96656.00;;;;5114874;28;20197;-54
2022/10/09 02:22:12;;;;;;;0.87;0.87;;;;;7.40;96655.00;;;;5114869;28;20529;-55
2022/10/09 02:24:40;;;;;;;0.70;0.70;;;;;7.30;96652.00;;;;5096985;28;20198;-55
2022/10/09 02:27:11;;;;;;;1.17;1.17;;;;;7.30;96651.00;;;;5113803;28;20285;-54
2022/10/09 02:29:42;;;;;;;0.83;0.83;;;;;7.20;96649.00;;;;5096925;28;20214;-53
2022/10/09 02:32:11;;;;;;;1.50;1.43;;;;;7.20;96652.00;;;;5114727;28;20218;-55
2022/10/09 02:34:38;;;;;;;0.80;0.80;;;;;7.40;96642.00;;;;5114728;28;20194;-54
2022/10/09 02:37:05;;;;;;;0.77;0.77;;;;;7.40;96643.00;;;;5114639;28;20226;-55
2022/10/09 02:39:32;;;;;;;0.60;0.60;;;;;7.40;96640.00;;;;5114640;28;20194;-53
2022/10/09 02:42:01;;;;;;;0.60;0.60;;;;;7.20;96636.00;;;;5114667;28;20237;-55
2022/10/09 02:44:28;;;;;;;0.93;0.93;;;;;7.20;96633.00;;;;5114585;28;20617;-54
2022/10/09 02:46:56;;;;;;;1.00;1.00;;;;;7.20;96636.00;;;;5096554;28;20225;-54
2022/10/09 02:49:24;;;;;;;0.90;0.90;;;;;7.30;96642.00;;;;5114380;28;20218;-54
2022/10/09 02:51:51;;;;;;;0.77;0.77;;;;;7.30;96638.00;;;;5114452;28;20679;-54
2022/10/09 02:54:18;;;;;;;0.90;0.90;;;;;7.40;96631.00;;;;5114978;28;20251;-55
2022/10/09 02:56:44;;;;;;;0.60;0.60;;;;;7.40;96645.00;;;;5114431;28;20190;-55
2022/10/09 02:59:11;;;;;;;0.93;0.93;;;;;7.40;96630.00;;;;5114537;28;20194;-55
2022/10/09 03:01:38;;;;;;;1.37;1.27;;;;;7.40;96636.00;;;;5114316;28;20278;-55
2022/10/09 03:04:05;;;;;;;0.90;0.90;;;;;7.30;96641.00;;;;5114330;28;20205;-53
2022/10/09 03:06:33;;;;;;;0.67;0.67;;;;;7.20;96634.00;;;;5114314;28;20277;-54
2022/10/09 03:09:00;;;;;;;1.30;1.00;;;;;7.10;96632.00;;;;5096376;28;20293;-54
2022/10/09 03:11:26;;;;;;;0.73;0.73;;;;;7.10;96630.00;;;;5114162;28;20335;-55
2022/10/09 03:13:53;;;;;;;0.97;0.83;;;;;7.20;96633.00;;;;5114110;28;20209;-54
2022/10/09 03:16:23;;;;;;;0.90;0.90;;;;;7.10;96629.00;;;;5096044;28;20316;-54
2022/10/09 03:18:50;;;;;;;0.90;0.90;;;;;7.10;96637.00;;;;5114192;28;20186;-54
2022/10/09 03:21:19;;;;;;;0.90;0.90;;;;;6.90;96631.00;;;;5096052;28;20553;-54
2022/10/09 03:23:48;;;;;;;0.70;0.70;;;;;6.80;96635.00;;;;5096373;28;20297;-54
2022/10/09 03:26:18;;;;;;;0.87;0.87;;;;;6.80;96632.00;;;;5114034;28;20189;-55
2022/10/09 03:28:47;;;;;;;0.77;0.77;;;;;6.80;96630.00;;;;5113877;28;20211;-55
2022/10/09 03:31:15;;;;;;;0.60;0.60;;;;;6.80;96632.00;;;;5114526;28;20267;-55
2022/10/09 03:33:42;;;;;;;0.60;0.60;;;;;6.80;96623.00;;;;5115021;28;20221;-57
2022/10/09 03:36:11;;;;;;;0.90;0.90;;;;;6.70;96627.00;;;;5114277;28;20194;-58
2022/10/09 03:38:38;;;;;;;0.67;0.67;;;;;6.80;96633.00;;;;5114982;28;20232;-55
2022/10/09 03:41:06;;;;;;;1.23;1.23;;;;;6.80;96626.00;;;;5096743;28;20222;-58
2022/10/09 03:43:34;;;;;;;0.63;0.63;;;;;6.70;96635.00;;;;5114636;28;20264;-56
2022/10/09 03:46:05;;;;;;;0.60;0.60;;;;;6.60;96623.00;;;;5115184;28;20236;-57
2022/10/09 03:48:34;;;;;;;0.63;0.63;;;;;6.70;96630.00;;;;5114740;28;20638;-55
2022/10/09 03:51:02;;;;;;;0.87;0.87;;;;;6.60;96635.00;;;;5113658;28;20228;-58
2022/10/09 03:53:29;;;;;;;0.60;0.60;;;;;6.50;96629.00;;;;5113672;28;20194;-56
2022/10/09 03:55:55;;;;;;;1.50;1.40;;;;;6.50;96626.00;;;;5113558;28;20213;-57
2022/10/09 03:58:23;;;;;;;0.80;0.80;;;;;6.50;96623.00;;;;5113660;28;20267;-56
2022/10/09 04:00:50;;;;;;;0.80;0.80;;;;;6.40;96629.00;;;;5113368;28;20519;-57
2022/10/09 04:03:17;;;;;;;1.13;1.13;;;;;6.40;96624.00;;;;5113544;28;20262;-60
2022/10/09 04:05:44;;;;;;;0.70;0.70;;;;;6.30;96632.00;;;;5113605;28;20212;-58
2022/10/09 04:08:13;;;;;;;1.63;1.53;;;;;6.10;96636.00;;;;5113592;28;20206;-55
2022/10/09 04:10:40;;;;;;;0.80;0.80;;;;;6.10;96629.00;;;;5113449;28;20214;-55
2022/10/09 04:13:07;;;;;;;0.80;0.80;;;;;6.10;96627.00;;;;5113812;28;20217;-56
2022/10/09 04:15:35;;;;;;;0.90;0.90;;;;;6.20;96618.00;;;;5113548;28;20220;-54
2022/10/09 04:18:02;;;;;;;0.90;0.90;;;;;6.30;96623.00;;;;5113392;28;20229;-54
2022/10/09 04:20:29;;;;;;;0.80;0.80;;;;;6.30;96631.00;;;;5113212;28;20520;-56
2022/10/09 04:22:56;;;;;;;0.80;0.80;;;;;6.10;96627.00;;;;5113392;28;20224;-54
2022/10/09 04:25:22;;;;;;;0.80;0.80;;;;;6.10;96614.00;;;;5113417;28;20202;-55
2022/10/09 04:27:49;;;;;;;0.70;0.70;;;;;6.20;96617.00;;;;5113356;28;20212;-56
2022/10/09 04:30:16;;;;;;;0.90;0.90;;;;;6.20;96616.00;;;;5113274;28;20576;-55
2022/10/09 04:32:43;;;;;;;0.90;0.90;;;;;6.30;96623.00;;;;5113317;28;20264;-59
2022/10/09 04:35:10;;;;;;;0.97;0.97;;;;;6.10;96621.00;;;;5112933;28;20216;-58
2022/10/09 04:37:39;;;;;;;0.60;0.60;;;;;6.20;96614.00;;;;5113316;28;20356;-56
2022/10/09 04:40:07;;;;;;;0.97;0.97;;;;;6.10;96618.00;;;;5095005;28;20230;-55
2022/10/09 04:42:34;;;;;;;1.10;0.90;;;;;6.10;96608.00;;;;5116562;28;20266;-53
2022/10/09 04:45:00;;;;;;;1.37;1.27;;;;;6.10;96605.00;;;;5116628;28;20205;-55
2022/10/09 04:47:27;;;;;;;0.83;0.83;;;;;6.10;96607.00;;;;5116404;28;20194;-54
2022/10/09 04:49:54;;;;;;;0.60;0.60;;;;;6.10;96611.00;;;;5116373;28;20606;-54
2022/10/09 04:52:21;;;;;;;0.93;0.93;;;;;6.20;96604.00;;;;5116264;28;20278;-53
2022/10/09 04:54:50;;;;;;;1.23;1.13;;;;;6.00;96611.00;;;;5116301;28;20204;-53
2022/10/09 04:57:17;;;;;;;0.60;0.60;;;;;6.00;96611.00;;;;5116147;28;20221;-54
2022/10/09 04:59:44;;;;;;;1.30;1.20;;;;;6.00;96610.00;;;;5116196;28;20205;-53
2022/10/09 05:02:11;;;;;;;0.70;0.70;;;;;6.00;96604.00;;;;5116055;28;20212;-54
2022/10/09 05:04:38;;;;;;;0.60;0.60;;;;;5.90;96604.00;;;;5116229;28;20505;-54
2022/10/09 05:07:05;;;;;;;1.43;1.33;;;;;5.90;96598.00;;;;5116287;28;20194;-53
2022/10/09 05:09:32;;;;;;;0.90;0.90;;;;;5.80;96604.00;;;;5116077;28;20227;-55
2022/10/09 05:11:59;;;;;;;1.17;1.07;;;;;5.70;96602.00;;;;5116351;28;20198;-55
2022/10/09 05:14:26;;;;;;;0.80;0.80;;;;;5.80;96594.00;;;;5116097;28;20315;-55
2022/10/09 05:16:52;;;;;;;1.13;1.13;;;;;5.70;96606.00;;;;5116102;28;20237;-55
2022/10/09 05:19:19;;;;;;;0.67;0.67;;;;;5.70;96604.00;;;;5098023;28;20234;-55
2022/10/09 05:21:46;;;;;;;0.60;0.60;;;;;5.80;96604.00;;;;5116003;28;20232;-54
2022/10/09 05:24:13;;;;;;;0.60;0.60;;;;;5.60;96601.00;;;;5115890;28;20188;-53
2022/10/09 05:26:40;;;;;;;0.80;0.80;;;;;5.40;96600.00;;;;5115886;28;20194;-53
2022/10/09 05:29:09;;;;;;;0.70;0.70;;;;;5.50;96607.00;;;;5115883;28;20254;-58
2022/10/09 05:31:36;;;;;;;1.27;1.27;;;;;5.60;96595.00;;;;5115814;28;20221;-56
2022/10/09 05:34:05;;;;;;;0.70;0.70;;;;;5.80;96596.00;;;;5115856;28;20197;-54
2022/10/09 05:36:34;;;;;;;0.77;0.77;;;;;5.50;96599.00;;;;5115510;28;20224;-54
2022/10/09 05:39:01;;;;;;;0.77;0.77;;;;;5.60;96603.00;;;;5115654;28;20186;-54
2022/10/09 05:41:29;;;;;;;0.60;0.60;;;;;5.60;96604.00;;;;5115439;28;20222;-53
2022/10/09 05:44:01;;;;;;;0.70;0.70;;;;;5.70;96602.00;;;;5115592;28;20202;-54
2022/10/09 05:46:28;;;;;;;0.57;0.57;;;;;5.50;96602.00;;;;5115501;28;20189;-54
2022/10/09 05:48:57;;;;;;;0.70;0.70;;;;;5.40;96601.00;;;;5115489;28;20202;-53
2022/10/09 05:51:25;;;;;;;0.67;0.67;;;;;5.40;96602.00;;;;5115367;28;20189;-53
2022/10/09 05:53:53;;;;;;;2.00;1.47;;;;;5.50;96593.00;;;;5114273;28;20686;-53
2022/10/09 05:56:21;;;;;;;0.80;0.80;;;;;5.60;96590.00;;;;5115594;28;20201;-55
2022/10/09 05:58:53;;;;;;;1.03;1.03;;;;;5.60;96598.00;;;;5115211;28;20221;-54
2022/10/09 06:01:23;;;;;;;2.00;1.43;;;;;5.70;96596.00;;;;5115153;28;20223;-54
2022/10/09 06:03:51;;;;;;;1.33;1.23;;;;;5.60;96602.00;;;;5115079;28;20283;-53
2022/10/09 06:06:20;;;;;;;0.80;0.80;;;;;5.60;96594.00;;;;5115322;28;20201;-54
2022/10/09 06:08:47;;;;;;;0.63;0.63;;;;;5.60;96594.00;;;;5115117;28;20281;-53
2022/10/09 06:11:15;;;;;;;0.60;0.60;;;;;5.40;96591.00;;;;5115144;28;20210;-54
2022/10/09 06:13:43;;;;;;;0.70;0.70;;;;;5.50;96592.00;;;;5097411;28;20201;-55
2022/10/09 06:16:12;;;;;;;0.70;0.70;;;;;5.70;96601.00;;;;5115028;28;20214;-54
2022/10/09 06:18:39;;;;;;;1.00;1.00;;;;;5.70;96595.00;;;;5114815;28;20263;-54
2022/10/09 06:21:06;;;;;;;0.93;0.93;;;;;5.70;96589.00;;;;5114761;28;20244;-57
2022/10/09 06:23:33;;;;;;;0.60;0.60;;;;;5.60;96594.00;;;;5114880;28;20196;-53
2022/10/09 06:26:02;;;;;;;0.50;0.50;;;;;5.70;96599.00;;;;5115022;28;20199;-55
2022/10/09 06:28:30;;;;;;;1.00;1.00;;;;;5.70;96598.00;;;;5113881;28;20208;-58
2022/10/09 06:31:01;;;;;;;0.77;0.77;;;;;5.80;96608.00;;;;5115123;28;20204;-55
2022/10/09 06:33:32;;;;;;;0.80;0.80;;;;;5.80;96590.00;;;;5114753;28;20546;-53
2022/10/09 06:36:03;;;;;;;1.07;1.07;;;;;5.90;96606.00;;;;5114624;28;20531;-53
2022/10/09 06:38:33;;;;;;;1.10;1.10;;;;;5.90;96606.00;;;;5098417;28;20225;-54
2022/10/09 06:41:02;;;;;;;0.80;0.80;;;;;6.00;96604.00;;;;5096640;28;20321;-56
2022/10/09 06:43:31;;;;;;;0.60;0.60;;;;;6.00;96606.00;;;;5114567;28;20222;-55
2022/10/09 06:46:01;;;;;;;0.93;0.93;;;;;5.90;96606.00;;;;5114579;28;20202;-53
2022/10/09 06:48:29;;;;;;;0.60;0.60;;;;;5.70;96563.00;;;;5114436;28;20246;-55
2022/10/09 06:51:01;;;;;;;0.77;0.77;;;;;5.40;96607.00;;;;5114605;28;20258;-55
2022/10/09 06:53:28;;;;;;;0.87;0.87;;;;;5.50;96613.00;;;;5114550;28;20186;-57
2022/10/09 06:55:56;;;;;;;0.60;0.60;;;;;5.70;96615.00;;;;5114422;28;20219;-56
2022/10/09 06:58:23;;;;;;;0.80;0.80;;;;;5.90;96611.00;;;;5114413;28;20517;-54
2022/10/09 07:01:00;;;;;;;0.73;0.73;;;;;6.00;96614.00;;;;5114223;28;20226;-58
2022/10/09 07:03:27;;;;;;;1.07;1.07;;;;;6.10;96616.00;;;;5113875;28;20203;-55
2022/10/09 07:05:55;;;;;;;0.83;0.83;;;;;6.20;96621.00;;;;5114197;28;20584;-55
2022/10/09 07:08:23;;;;;;;0.90;0.90;;;;;6.30;96619.00;;;;5096273;28;20207;-55
2022/10/09 07:10:49;;;;;;;1.00;1.00;;;;;6.40;96618.00;;;;5114427;28;20202;-55
2022/10/09 07:13:16;;;;;;;1.33;1.33;;;;;6.20;96616.00;;;;5114442;28;20211;-56
2022/10/09 07:15:44;;;;;;;0.90;0.90;;;;;6.40;96617.00;;;;5114199;28;20265;-55
2022/10/09 07:18:11;;;;;;;1.33;1.27;;;;;6.50;96611.00;;;;5114215;28;20221;-56
2022/10/09 07:20:38;;;;;;;1.20;0.97;;;;;6.60;96611.00;;;;5114019;28;20286;-55
2022/10/09 07:23:05;;;;;;;3.27;1.57;;;;;6.70;96618.00;;;;5095971;28;20233;-55
2022/10/09 07:25:36;;;;;;;1.20;1.10;;;;;6.80;96621.00;;;;5114002;28;20197;-54
2022/10/09 07:28:03;;;;;;;1.03;1.03;;;;;6.80;96627.00;;;;5113923;28;20679;-56
2022/10/09 07:30:29;;;;;;;0.80;0.80;;;;;7.00;96620.00;;;;5114022;28;20197;-53
2022/10/09 07:32:56;;;;;;;0.80;0.80;;;;;7.00;96611.00;;;;5113897;28;20254;-55
2022/10/09 07:35:23;;;;;;;0.67;0.67;;;;;7.00;96608.00;;;;5114137;28;20243;-55
2022/10/09 07:37:51;;;;;;;1.17;1.17;;;;;7.10;96610.00;;;;5113834;28;20296;-57
2022/10/09 07:40:20;;;;;;;0.93;0.90;;;;;7.00;96618.00;;;;5113715;28;20240;-53
2022/10/09 07:42:48;;;;;;;1.23;1.23;;;;;7.20;96620.00;;;;5113816;28;20186;-53
2022/10/09 07:45:14;;;;;;;0.90;0.90;;;;;7.20;96606.00;;;;5113706;28;20226;-54
2022/10/09 07:47:41;;;;;;;1.03;1.03;;;;;7.30;96606.00;;;;5095912;28;20224;-57
2022/10/09 07:50:08;;;;;;;0.90;0.90;;;;;7.40;96616.00;;;;5113791;28;20198;-54
2022/10/09 07:52:35;;;;;;;1.03;1.03;;;;;7.20;96604.00;;;;5113667;28;20194;-53
2022/10/09 07:55:02;;;;;;;0.80;0.80;;;;;7.30;96610.00;;;;5113711;28;20247;-53
2022/10/09 07:57:28;;;;;;;1.07;1.07;;;;;7.40;96607.00;;;;5113684;28;20365;-55
2022/10/09 07:59:56;;;;;;;0.80;0.80;;;;;7.50;96609.00;;;;5113659;28;20190;-54
2022/10/09 08:02:25;;;;;;;1.00;1.00;;;;;7.50;96606.00;;;;5113551;28;20232;-55
2022/10/09 08:04:52;;;;;;;0.90;0.90;;;;;7.50;96608.00;;;;5113556;28;20629;-54
2022/10/09 08:07:19;;;;;;;0.70;0.70;;;;;7.70;96607.00;;;;5113635;28;20221;-54
2022/10/09 08:09:48;;;;;;;0.97;0.97;;;;;7.90;96603.00;;;;5113456;28;20198;-54
2022/10/09 08:12:14;;;;;;;1.77;1.67;;;;;7.90;96608.00;;;;5113297;28;20198;-53
2022/10/09 08:14:41;;;;;;;1.57;1.47;;;;;8.00;96601.00;;;;5113455;28;20206;-55
2022/10/09 08:17:09;;;;;;;1.63;1.53;;;;;8.20;96606.00;;;;5098331;28;20194;-53
2022/10/09 08:19:35;;;;;;;0.97;0.97;;;;;8.30;96592.00;;;;5099032;28;20198;-53
2022/10/09 08:22:04;;;;;;;0.87;0.87;;;;;8.50;96593.00;;;;5116842;28;20533;-55
2022/10/09 08:24:31;;;;;;;0.80;0.80;;;;;8.70;96595.00;;;;5098892;28;20209;-55
2022/10/09 08:26:58;;;;;;;1.77;1.67;;;;;8.90;96600.00;;;;5116762;28;20697;-55
2022/10/09 08:29:25;;;;;;;2.17;1.20;;;;;9.20;96586.00;;;;5116592;28;20202;-54
2022/10/09 08:31:52;;;;;;;0.90;0.90;;;;;9.50;96591.00;;;;5116945;28;20610;-54
2022/10/09 08:34:19;;;;;;;0.77;0.77;;;;;9.60;96592.00;;;;5116463;28;20218;-54
2022/10/09 08:36:46;;;;;;;1.87;1.13;;;10.30;92.80;9.70;96581.00;;;;5116693;28;20190;-53
2022/10/09 08:39:13;;;;;;;0.80;0.80;;;;;10.00;96585.00;;;;5116495;28;20236;-54
2022/10/09 08:41:43;;;;;;;1.00;1.00;;;;;10.20;96579.00;;;;5116414;28;20218;-54
2022/10/09 08:44:17;;;;;;;0.83;0.83;;;10.80;89.00;10.30;96586.00;;;;5116529;28;20594;-55
2022/10/09 08:46:58;;;;;;;0.83;0.83;;;11.00;86.50;10.50;96578.00;;;;5116491;28;20214;-54
2022/10/09 08:49:36;;;;;;;1.80;1.27;;;11.10;85.90;10.60;96579.00;;;;5116358;28;20664;-54
2022/10/09 08:52:27;;;;;;;1.43;1.33;;;11.20;84.60;10.70;96588.00;;;;5116382;28;20194;-53
2022/10/09 08:55:00;;;;;;;2.03;1.53;;;11.30;82.90;10.90;96560.00;;;;5116377;28;20240;-57
2022/10/09 08:57:33;;;;;;;0.80;0.80;;;11.50;83.70;11.10;96577.00;;;;5116373;28;20210;-54
2022/10/09 09:00:00;;;;;;;0.80;0.80;;;;;11.20;96583.00;;;;5116210;28;20324;-55
2022/10/09 09:02:51;;;;;;;0.97;0.97;;;11.80;99.90;11.40;96572.00;;;;5116334;28;20214;-56
2022/10/09 09:05:35;;;;;;;0.70;0.70;;;12.00;94.90;11.50;96571.00;;;;5116226;28;20312;-55
2022/10/09 09:08:18;;;;;;;0.80;0.80;;;12.00;82.70;11.70;96573.00;;;;5116286;28;20209;-54
2022/10/09 09:10:54;;;;;;;0.70;0.70;;;12.20;79.60;11.90;96576.00;;;;5116101;28;20241;-53
2022/10/09 09:13:44;;;;;;;1.40;1.23;;;12.40;77.70;12.00;96564.00;;;;5116028;28;20292;-56
2022/10/09 09:16:24;;;;;;;1.40;1.20;;;12.60;74.70;12.00;96571.00;;;;5116007;28;20232;-55
2022/10/09 09:19:08;;;;;;;0.90;0.90;;;12.50;75.30;12.10;96564.00;;;;5116153;28;20185;-56
2022/10/09 09:21:46;;;;;;;1.80;1.70;;;12.60;74.50;12.30;96561.00;;;;5115932;28;20312;-55
2022/10/09 09:24:17;;;;;;;1.03;1.03;;;12.80;80.90;12.40;96557.00;;;;5116066;28;20198;-56
2022/10/09 09:26:49;;;;;;;1.30;1.30;;;12.90;74.60;12.40;96561.00;;;;5115761;28;20217;-54
2022/10/09 09:29:22;;;;;;;0.70;0.70;;;13.00;76.20;12.70;96558.00;;;;5115745;28;20277;-57
2022/10/09 09:31:54;;;;;;;0.90;0.90;;;13.20;70.50;12.70;96558.00;;;;5097809;28;20226;-54
2022/10/09 09:34:33;;;;;;;0.80;0.80;;;13.30;79.60;12.70;96549.00;;;;5115749;28;20233;-53
2022/10/09 09:37:00;;;;;;;2.73;1.07;;;13.30;68.40;12.70;96550.00;;;;5116026;28;20225;-53
2022/10/09 09:39:31;;;;;;;0.60;0.60;;;13.30;69.50;12.70;96545.00;;;;5114706;28;20507;-55
2022/10/09 09:42:10;;;;;;;0.60;0.60;;;13.30;70.30;13.20;96543.00;;;;5115587;28;20326;-53
2022/10/09 09:44:42;;;;;;;0.60;0.60;;;13.60;68.60;13.30;96518.00;;;;5115689;28;20198;-55
2022/10/09 09:47:19;;;;;;;0.90;0.90;;;13.80;67.00;13.30;96539.00;;;;5115924;28;20220;-56
2022/10/09 09:49:55;;;;;;;0.90;0.90;;;13.80;65.20;13.50;96540.00;;;;5115876;28;20644;-53
2022/10/09 09:52:29;;;;;;;1.20;1.17;;;13.90;65.40;13.50;96526.00;;;;5097494;28;20239;-53
2022/10/09 09:54:57;;;;;;;0.97;0.80;;;14.00;64.50;13.70;96535.00;;;;5115706;28;20588;-54
2022/10/09 09:57:41;;;;;;;0.50;0.50;;;14.20;64.30;13.60;96521.00;;;;5115611;28;20214;-55
2022/10/09 10:00:20;;;;;;;1.37;1.30;;;14.20;62.80;13.80;96529.00;;;;5115271;28;20217;-53
2022/10/09 10:02:47;;;;;;;0.70;0.70;;;14.30;63.00;13.90;96525.00;;;;5115368;28;20616;-54
2022/10/09 10:05:23;;;;;;;2.07;0.73;;;14.30;61.40;13.80;96517.00;;;;5115453;28;20205;-54
2022/10/09 10:07:50;;;;;;;0.63;0.63;;;14.40;61.80;14.10;96513.00;;;;5115344;28;20193;-55
2022/10/09 10:10:20;;;;;;;1.00;1.00;;;14.60;61.30;14.30;96515.00;;;;5114455;28;20316;-55
2022/10/09 10:12:55;;;;;;;0.57;0.57;;;14.70;61.50;14.40;96511.00;;;;5115320;28;20234;-53
2022/10/09 10:15:25;;;;;;;0.80;0.80;;;14.80;60.20;14.40;96513.00;;;;5115191;28;20304;-54
2022/10/09 10:17:59;;;;;;;0.47;0.47;;;14.90;59.90;14.50;96497.00;;;;5115382;28;20248;-55
2022/10/09 10:20:28;;;;;;;1.67;1.17;;;14.90;57.50;14.40;96496.00;;;;5115240;28;20218;-54
2022/10/09 10:22:58;;;;;;;0.60;0.60;;;14.90;54.50;14.50;96494.00;;;;5115355;28;20221;-53
2022/10/09 10:25:31;;;;;;;0.47;0.47;;;15.00;54.20;14.40;96493.00;;;;5097245;28;20302;-53
2022/10/09 10:28:05;;;;;;;0.60;0.60;;;14.90;54.40;14.70;96491.00;;;;5115194;28;20540;-53
2022/10/09 10:30:36;;;;;;;0.77;0.77;;;15.10;54.90;14.80;96487.00;;;;5115071;28;20279;-53
2022/10/09 10:33:13;;;;;;;0.70;0.70;;;15.20;51.60;15.00;96486.00;;;;5114968;28;20222;-54
2022/10/09 10:35:43;;;;;;;0.60;0.60;;;15.40;50.20;15.10;96479.00;;;;5097078;28;20293;-54
2022/10/09 10:38:17;;;;;;;0.73;0.73;;;15.50;50.80;15.30;96483.00;;;;5114061;28;20300;-55
2022/10/09 10:40:51;;;;;;;0.90;0.90;;;15.60;50.70;15.20;96475.00;;;;5114763;28;20216;-54
2022/10/09 10:43:34;;;;;;;0.83;0.83;;;15.70;50.20;15.50;96464.00;;;;5114834;28;20229;-54
2022/10/09 10:46:14;;;;;;;0.50;0.50;;;15.90;48.70;15.60;96461.00;;;;5114924;28;20204;-60
2022/10/09 10:48:45;;;;;;;0.97;0.97;;;16.00;48.10;15.50;96459.00;;;;5114554;28;20296;-54
2022/10/09 10:51:47;;;;;;;0.70;0.70;;;16.00;47.70;15.80;96469.00;;;;5114600;28;20178;-54
2022/10/09 10:54:35;;;;;;;1.10;0.80;;;16.30;46.20;15.80;96461.00;;;;5114497;28;20248;-54
2022/10/09 10:57:14;;;;;;;0.83;0.83;;;16.20;45.80;15.90;96461.00;;;;5114664;28;20198;-58
2022/10/09 10:59:51;;;;;;;0.60;0.60;;;16.30;46.30;16.00;96458.00;;;;5096623;28;20221;-52
2022/10/09 11:02:50;;;;;;;0.83;0.77;;;16.40;45.50;16.00;96455.00;;;;5114372;28;20274;-54
2022/10/09 11:05:48;;;;;;;0.50;0.50;;;16.40;43.70;16.40;96452.00;;;;5114337;28;20234;-55
2022/10/09 11:08:48;;;;;;;2.13;1.03;;;16.70;44.40;16.50;96458.00;;;;5113619;28;20205;-53
2022/10/09 11:11:24;;;;;;;0.80;0.80;;;16.90;44.90;16.80;96443.00;;;;5114228;28;20228;-52
2022/10/09 11:14:05;;;;;;;1.77;1.67;;;17.10;44.00;16.70;96431.00;;;;5114339;28;20265;-52
2022/10/09 11:16:48;;;;;;;0.97;0.97;;;17.10;42.50;16.70;96439.00;;;;5114328;28;20217;-53
2022/10/09 11:19:41;;;;;;;0.83;0.83;;;17.10;42.40;16.70;96449.00;;;;5114251;28;20274;-54
2022/10/09 11:22:41;;;;;;;0.80;0.80;;;17.10;40.70;16.40;96438.00;;;;5114016;28;20229;-53
2022/10/09 11:25:28;;;;;;;16.33;1.37;;;16.90;41.60;16.70;96429.00;;;;5114123;28;20273;-52
2022/10/09 11:28:06;;;;;;;0.70;0.70;;;17.10;41.60;17.20;96441.00;;;;5096050;28;20218;-54
2022/10/09 11:30:40;;;;;;;0.73;0.73;;;17.50;42.20;17.80;96423.00;;;;5114111;28;20194;-53
2022/10/09 11:33:27;;;;;;;16.07;1.00;;;18.00;42.00;17.60;96438.00;;;;5114007;28;20222;-53
2022/10/09 11:36:01;;;;;;;0.63;0.63;;;17.90;40.10;17.60;96422.00;;;;5113850;28;20300;-54
2022/10/09 11:38:34;;;;;;;0.60;0.60;;;18.00;39.80;17.80;96416.00;;;;5113842;28;20299;-53
2022/10/09 11:41:05;;;;;;;0.40;0.40;;;18.10;39.20;18.40;96418.00;;;;5113960;28;20209;-53
2022/10/09 11:43:59;;;;;;;0.50;0.50;;;18.50;39.10;18.50;96417.00;;;;5113792;28;20194;-53
2022/10/09 11:46:35;;;;;;;0.60;0.60;;;;;18.90;96416.00;;;;5113485;28;20281;-53
2022/10/09 11:49:19;;;;;;;0.57;0.57;;;19.10;37.50;18.80;96405.00;;;;5113930;28;20182;-55
2022/10/09 11:51:55;;;;;;;0.70;0.70;;;19.10;36.60;19.10;96407.00;;;;5117418;28;20578;-53
2022/10/09 11:54:26;;;;;;;0.77;0.77;;;19.30;37.00;18.90;96401.00;;;;5117474;28;20202;-54
2022/10/09 11:56:58;;;;;;;0.57;0.57;;;19.10;33.60;18.70;96387.00;;;;5117592;28;20202;-53
2022/10/09 11:59:29;;;;;;;0.87;0.87;;;19.10;34.50;18.70;96399.00;;;;5117365;28;20221;-55
2022/10/09 12:01:57;;;;;;;2.90;0.90;;;19.00;34.40;19.00;96388.00;;;;5117236;28;20221;-53
2022/10/09 12:04:29;;;;;;;0.40;0.40;;;19.20;34.50;19.50;96389.00;;;;5117253;28;20193;-53
2022/10/09 12:06:59;;;;;;;0.57;0.57;;;19.60;35.90;19.50;96382.00;;;;5117307;28;20617;-54
2022/10/09 12:09:31;;;;;;;0.93;0.60;;;19.60;34.30;19.70;96378.00;;;;5117298;28;20672;-55
2022/10/09 12:12:05;;;;;;;0.43;0.43;;;19.80;33.60;19.70;96377.00;;;;5117101;28;20225;-54
2022/10/09 12:14:36;;;;;;;1.23;1.13;;;19.80;32.40;19.70;96369.00;;;;5117182;28;20196;-54
2022/10/09 12:17:16;;;;;;;0.67;0.67;;;19.90;33.40;20.40;96374.00;;;;5117714;28;20185;-54